Главная страница
METAR-TAF:

METAR-TAF

Аэропорты :

Бонрики

Тарава, Кирибати

широта: 01-21N, долгота: 172-55E, высота над уровнем моря: 2 м

Текущие метеонаблюдения

Эта сводка был подготовлена 47 минут назад, в 01:00 UTC
Ветер 6 Узел от восточно-юго-восточный
Температура 32°C
Влажность 63%
Давление 1008 hPa
Видимость 10 км и более
небольшая облачность на высоте 2000 фута

METAR: NGTA 160100Z 12006KT 9999 FEW020 32/24 Q1008

Время: 15:47 (01:47 UTC)

Прогноз

Эта сводка был подготовлена 2 часа и 33 минут назад, в 23:14 UTC
Прогноз действительный с 16-го 00 UTC до 16-го 24 UTC
Ветер 8 Узел от восточный
Видимость 10 км и более
Отдельные облака на высоте 2000 фута

TAF: NGTA 152314Z 1600/1624 10008KT 9999 SCT020

Метеонаблюдения и прогнозы для более 4000 аэропортов (сводки METAR и TAF).

Имеющиеся станции представлены на карте желтыми и красными точками.

Чтобы увидеть название станции, наведите на нее мышь.

Затем щелкните, чтобы увидеть метеонаблюдения и метеопрогнозы.

Управление картой: чтобы увеличить масштаб, щелкните зеленые кнопки с черным крестиком; чтобы уменьшить масштаб, щелкните зеленую кнопку с тире; для просмотра соседних карт щелкайте зеленые стрелки.


METAR-TAF: